createdAt,value
2022-10-01T00:01:39.689Z,3.80
2022-10-01T00:04:29.965Z,3.57
2022-10-01T00:07:18.843Z,4.20
2022-10-01T00:10:08.271Z,3.53
2022-10-01T00:12:57.163Z,3.57
2022-10-01T00:15:46.018Z,4.00
2022-10-01T00:18:36.566Z,3.23
2022-10-01T00:21:27.370Z,3.70
2022-10-01T00:24:16.308Z,4.50
2022-10-01T00:27:05.189Z,3.53
2022-10-01T00:29:54.218Z,3.40
2022-10-01T00:32:43.046Z,3.87
2022-10-01T00:35:31.900Z,4.53
2022-10-01T00:38:22.179Z,4.23
2022-10-01T00:41:11.391Z,5.60
2022-10-01T00:44:01.539Z,3.70
2022-10-01T00:46:50.450Z,5.07
2022-10-01T00:49:39.512Z,3.90
2022-10-01T00:52:30.954Z,4.33
2022-10-01T00:55:23.503Z,5.80
2022-10-01T00:58:14.271Z,4.30
2022-10-01T01:01:03.130Z,4.77
2022-10-01T01:03:52.044Z,4.40
2022-10-01T01:06:41.236Z,5.30
2022-10-01T01:09:31.764Z,4.77
2022-10-01T01:12:27.333Z,5.80
2022-10-01T01:15:19.842Z,4.30
2022-10-01T01:18:10.982Z,6.00
2022-10-01T01:21:12.783Z,7.13
2022-10-01T01:24:28.067Z,5.70
2022-10-01T01:27:25.932Z,6.70
2022-10-01T01:30:17.267Z,5.10
2022-10-01T01:33:09.251Z,7.03
2022-10-01T01:35:59.278Z,6.17
2022-10-01T01:38:51.591Z,5.47
2022-10-01T01:41:41.599Z,6.20
2022-10-01T01:44:33.334Z,5.50
2022-10-01T01:47:24.427Z,5.17
2022-10-01T01:50:14.508Z,5.90
2022-10-01T01:53:03.351Z,6.57
2022-10-01T01:55:52.283Z,5.80
2022-10-01T01:58:41.083Z,5.43
2022-10-01T02:01:34.238Z,6.70
2022-10-01T02:04:26.510Z,5.97
2022-10-01T02:07:27.276Z,5.80
2022-10-01T02:10:20.395Z,6.60
2022-10-01T02:13:14.535Z,7.20
2022-10-01T02:16:07.964Z,6.23
2022-10-01T02:19:02.359Z,5.20
2022-10-01T02:21:57.030Z,5.73
2022-10-01T02:24:47.116Z,6.00
2022-10-01T02:27:39.315Z,5.90
2022-10-01T02:30:28.685Z,4.90
2022-10-01T02:33:19.893Z,6.10
2022-10-01T02:36:09.674Z,5.70
2022-10-01T02:39:01.094Z,6.43
2022-10-01T02:41:51.821Z,5.47
2022-10-01T02:44:44.916Z,7.10
2022-10-01T02:47:35.527Z,7.70
2022-10-01T02:50:25.820Z,7.27
2022-10-01T02:53:19.237Z,7.33
2022-10-01T02:56:10.630Z,7.37
2022-10-01T02:58:58.445Z,6.27
2022-10-01T03:01:47.346Z,5.93
2022-10-01T03:04:36.299Z,6.40
2022-10-01T03:07:25.154Z,6.03
2022-10-01T03:10:14.901Z,6.87
2022-10-01T03:13:06.483Z,6.83
2022-10-01T03:15:55.315Z,8.03
2022-10-01T03:18:44.340Z,9.60
2022-10-01T03:21:33.355Z,8.30
2022-10-01T03:24:22.371Z,8.67
2022-10-01T03:27:12.205Z,7.80
2022-10-01T03:30:02.315Z,7.30
2022-10-01T03:32:51.099Z,8.40
2022-10-01T03:35:39.878Z,10.43
2022-10-01T03:38:28.632Z,8.00
2022-10-01T03:41:17.490Z,7.10
2022-10-01T03:44:06.341Z,8.00
2022-10-01T03:46:56.455Z,7.77
2022-10-01T03:49:45.230Z,8.17
2022-10-01T03:52:34.053Z,7.00
2022-10-01T03:55:22.897Z,6.47
2022-10-01T03:58:11.766Z,6.20
2022-10-01T04:01:00.577Z,4.80
2022-10-01T04:03:51.071Z,5.20
2022-10-01T04:06:39.953Z,5.53
2022-10-01T04:09:28.719Z,4.93
2022-10-01T04:12:18.814Z,4.30
2022-10-01T04:15:07.899Z,4.80
2022-10-01T04:17:57.094Z,4.90
2022-10-01T04:20:47.236Z,5.73
2022-10-01T04:23:36.127Z,5.70
2022-10-01T04:26:25.108Z,5.70
2022-10-01T04:29:13.929Z,6.10
2022-10-01T04:32:03.410Z,5.17
2022-10-01T04:34:55.248Z,3.90
2022-10-01T04:37:45.393Z,5.20
2022-10-01T04:40:35.166Z,5.37
2022-10-01T04:43:24.140Z,6.17
2022-10-01T04:46:13.633Z,5.47
2022-10-01T04:49:02.463Z,4.30
2022-10-01T04:51:51.294Z,4.80
2022-10-01T04:54:41.476Z,4.90
2022-10-01T04:57:30.270Z,3.83
2022-10-01T05:00:20.120Z,2.70
2022-10-01T05:03:08.990Z,3.30
2022-10-01T05:05:57.759Z,4.60
2022-10-01T05:08:48.757Z,3.70
2022-10-01T05:11:39.035Z,3.87
2022-10-01T05:14:27.902Z,3.93
2022-10-01T05:17:17.213Z,2.90
2022-10-01T05:20:07.187Z,3.53
2022-10-01T05:22:56.745Z,3.43
2022-10-01T05:25:46.928Z,2.87
2022-10-01T05:28:38.334Z,2.70
2022-10-01T05:31:27.254Z,2.43
2022-10-01T05:34:16.100Z,2.20
2022-10-01T05:37:05.171Z,2.63
2022-10-01T05:39:54.307Z,3.03
2022-10-01T05:42:46.994Z,2.90
2022-10-01T05:45:37.606Z,3.10
2022-10-01T05:48:26.487Z,2.70
2022-10-01T05:51:16.106Z,2.20
2022-10-01T05:54:04.998Z,2.10
2022-10-01T05:56:54.527Z,3.10
2022-10-01T05:59:44.307Z,2.47
2022-10-01T06:02:34.723Z,2.10
2022-10-01T06:05:23.695Z,2.93
2022-10-01T06:08:12.498Z,2.40
2022-10-01T06:11:01.850Z,2.30
2022-10-01T06:13:50.868Z,3.20
2022-10-01T06:16:39.941Z,2.40
2022-10-01T06:19:30.138Z,3.13
2022-10-01T06:22:19.027Z,2.50
2022-10-01T06:25:08.550Z,2.10
2022-10-01T06:27:58.297Z,3.63
2022-10-01T06:30:47.303Z,4.43
2022-10-01T06:33:36.751Z,2.23
2022-10-01T06:36:26.908Z,2.13
2022-10-01T06:39:15.739Z,1.90
2022-10-01T06:42:04.595Z,2.40
2022-10-01T06:44:53.375Z,1.83
2022-10-01T06:47:42.221Z,2.00
2022-10-01T06:50:31.891Z,2.20
2022-10-01T06:53:22.041Z,4.00
2022-10-01T06:56:10.934Z,2.17
2022-10-01T06:58:59.758Z,1.70
2022-10-01T07:01:56.399Z,1.40
2022-10-01T07:04:45.424Z,2.17
2022-10-01T07:07:35.220Z,2.20
2022-10-01T07:10:25.450Z,2.07
2022-10-01T07:13:16.341Z,2.63
2022-10-01T07:16:05.231Z,1.70
2022-10-01T07:18:54.169Z,1.80
2022-10-01T07:21:42.998Z,1.60
2022-10-01T07:24:31.897Z,2.50
2022-10-01T07:27:22.509Z,2.00
2022-10-01T07:30:11.786Z,2.47
2022-10-01T07:33:00.584Z,4.53
2022-10-01T07:35:49.396Z,2.43
2022-10-01T07:38:38.285Z,3.30
2022-10-01T07:41:27.156Z,2.03
2022-10-01T07:44:17.305Z,4.30
2022-10-01T07:47:06.076Z,2.10
2022-10-01T07:49:54.927Z,3.07
2022-10-01T07:52:43.782Z,2.53
2022-10-01T07:55:32.780Z,2.53
2022-10-01T07:58:23.797Z,2.43
2022-10-01T08:01:13.965Z,2.80
2022-10-01T08:04:23.685Z,2.70
2022-10-01T08:07:12.473Z,2.67
2022-10-01T08:10:02.023Z,2.73
2022-10-01T08:12:50.980Z,4.00
2022-10-01T08:15:39.779Z,4.40
2022-10-01T08:18:29.936Z,3.60
2022-10-01T08:21:18.769Z,3.63
2022-10-01T08:24:07.611Z,2.90
2022-10-01T08:26:57.634Z,2.90
2022-10-01T08:29:46.421Z,3.13
2022-10-01T08:32:35.234Z,2.83
2022-10-01T08:35:26.487Z,3.20
2022-10-01T08:38:15.616Z,2.07
2022-10-01T08:41:09.117Z,1.63
2022-10-01T08:43:58.717Z,2.07
2022-10-01T08:46:47.926Z,2.03
2022-10-01T08:49:39.232Z,1.60
2022-10-01T08:52:31.478Z,2.60
2022-10-01T08:55:22.382Z,2.23
2022-10-01T08:58:12.868Z,2.40
2022-10-01T09:01:01.820Z,1.10
2022-10-01T09:03:51.159Z,1.20
2022-10-01T09:06:40.055Z,1.67
2022-10-01T09:09:37.803Z,2.13
2022-10-01T09:12:32.935Z,1.70
2022-10-01T09:15:28.318Z,2.17
2022-10-01T09:18:29.020Z,1.80
2022-10-01T09:21:20.828Z,1.80
2022-10-01T09:24:26.464Z,2.20
2022-10-01T09:27:17.790Z,2.00
2022-10-01T09:30:08.472Z,2.57
2022-10-01T09:32:59.551Z,1.80
2022-10-01T09:35:51.702Z,2.47
2022-10-01T09:38:41.786Z,4.40
2022-10-01T09:41:31.300Z,6.30
2022-10-01T09:44:26.562Z,2.43
2022-10-01T09:47:18.387Z,4.23
2022-10-01T09:50:08.559Z,4.40
2022-10-01T09:52:58.486Z,4.30
2022-10-01T09:55:49.465Z,6.77
2022-10-01T09:58:40.345Z,3.73
2022-10-01T10:01:38.187Z,5.10
2022-10-01T10:04:27.412Z,4.57
2022-10-01T10:07:19.179Z,4.03
2022-10-01T10:10:13.450Z,3.97
2022-10-01T10:13:03.458Z,3.60
2022-10-01T10:15:54.227Z,3.70
2022-10-01T10:18:48.631Z,3.80
2022-10-01T10:21:37.793Z,3.90
2022-10-01T10:24:28.254Z,5.17
2022-10-01T10:27:22.675Z,3.83
2022-10-01T10:30:15.412Z,4.07
2022-10-01T10:33:05.226Z,6.03
2022-10-01T10:36:03.652Z,3.50
2022-10-01T10:38:53.538Z,2.80
2022-10-01T10:41:45.713Z,3.30
2022-10-01T10:44:36.289Z,4.47
2022-10-01T10:47:28.296Z,5.40
2022-10-01T10:50:24.853Z,2.37
2022-10-01T10:53:21.961Z,2.20
2022-10-01T10:56:20.150Z,2.77
2022-10-01T10:59:09.241Z,3.50
2022-10-01T11:01:58.252Z,2.97
2022-10-01T11:04:47.685Z,3.23
2022-10-01T11:07:36.806Z,1.30
2022-10-01T11:10:40.717Z,3.10
2022-10-01T11:13:37.913Z,2.10
2022-10-01T11:16:40.329Z,3.97
2022-10-01T11:19:36.776Z,1.55
2022-10-01T11:22:41.982Z,1.98
2022-10-01T11:25:34.483Z,2.42
2022-10-01T11:28:30.522Z,1.35
2022-10-01T11:31:25.481Z,1.73
2022-10-01T11:34:21.640Z,2.10
2022-10-01T11:37:15.391Z,1.23
2022-10-01T11:40:09.961Z,2.43
2022-10-01T11:43:01.823Z,3.83
2022-10-01T11:45:54.428Z,2.87
2022-10-01T11:48:45.093Z,3.20
2022-10-01T11:51:36.486Z,2.70
2022-10-01T11:54:27.824Z,5.47
2022-10-01T11:57:34.922Z,5.60
2022-10-01T12:00:27.260Z,4.87
2022-10-01T12:03:22.179Z,2.50
2022-10-01T12:06:14.811Z,5.00
2022-10-01T12:09:06.855Z,5.30
2022-10-01T12:12:01.129Z,4.83
2022-10-01T12:14:53.686Z,1.57
2022-10-01T12:17:45.041Z,2.10
2022-10-01T12:20:37.624Z,2.53
2022-10-01T12:23:28.963Z,2.53
2022-10-01T12:26:19.959Z,2.67
2022-10-01T12:29:12.223Z,3.00
2022-10-01T12:32:03.320Z,5.87
2022-10-01T12:34:55.794Z,3.40
2022-10-01T12:37:54.942Z,3.10
2022-10-01T12:40:47.873Z,4.53
2022-10-01T12:43:49.944Z,4.40
2022-10-01T12:46:42.304Z,2.50
2022-10-01T12:49:34.790Z,3.10
2022-10-01T12:52:27.695Z,4.37
2022-10-01T12:55:23.952Z,4.70
2022-10-01T12:58:17.732Z,6.07
2022-10-01T13:01:12.385Z,4.03
2022-10-01T13:04:18.907Z,5.13
2022-10-01T13:07:24.906Z,6.47
2022-10-01T13:10:17.224Z,4.13
2022-10-01T13:13:12.028Z,2.77
2022-10-01T13:16:03.784Z,3.33
2022-10-01T13:18:57.057Z,3.83
2022-10-01T13:21:59.491Z,2.73
2022-10-01T13:24:52.252Z,4.23
2022-10-01T13:27:45.303Z,4.13
2022-10-01T13:30:44.006Z,6.90
2022-10-01T13:33:35.909Z,2.50
2022-10-01T13:36:30.757Z,4.83
2022-10-01T13:39:23.819Z,5.03
2022-10-01T13:42:22.335Z,3.90
2022-10-01T13:45:23.590Z,3.83
2022-10-01T13:48:20.135Z,4.55
2022-10-01T13:51:10.647Z,7.30
2022-10-01T13:54:01.797Z,3.47
2022-10-01T13:56:50.909Z,4.43
2022-10-01T13:59:39.963Z,7.50
2022-10-01T14:02:31.826Z,5.63
2022-10-01T14:05:28.834Z,4.43
2022-10-01T14:08:19.049Z,3.95
2022-10-01T14:11:28.724Z,5.03
2022-10-01T14:14:40.086Z,8.13
2022-10-01T14:17:30.739Z,4.95
2022-10-01T14:20:20.407Z,4.25
2022-10-01T14:23:13.230Z,10.15
2022-10-01T14:26:05.876Z,10.30
2022-10-01T14:29:03.710Z,3.75
2022-10-01T14:31:59.473Z,6.05
2022-10-01T14:34:52.364Z,5.68
2022-10-01T14:37:42.084Z,5.68
2022-10-01T14:40:38.620Z,4.57
2022-10-01T14:43:28.835Z,8.20
2022-10-01T14:46:18.683Z,3.07
2022-10-01T14:49:07.576Z,2.70
2022-10-01T14:52:00.358Z,4.00
2022-10-01T14:54:51.336Z,7.47
2022-10-01T14:57:42.812Z,3.30
2022-10-01T15:00:33.293Z,4.43
2022-10-01T15:03:22.326Z,4.33
2022-10-01T15:06:13.326Z,4.00
2022-10-01T15:09:07.343Z,7.50
2022-10-01T15:11:56.190Z,4.50
2022-10-01T15:14:46.918Z,4.40
2022-10-01T15:17:36.837Z,4.87
2022-10-01T15:20:25.762Z,2.17
2022-10-01T15:23:14.783Z,3.03
2022-10-01T15:26:05.417Z,4.43
2022-10-01T15:29:02.935Z,5.37
2022-10-01T15:31:54.714Z,4.17
2022-10-01T15:34:44.948Z,4.47
2022-10-01T15:37:34.872Z,2.60
2022-10-01T15:40:28.709Z,5.00
2022-10-01T15:43:26.151Z,2.77
2022-10-01T15:46:19.168Z,7.17
2022-10-01T15:49:18.301Z,4.97
2022-10-01T15:52:24.972Z,3.90
2022-10-01T15:55:15.362Z,2.30
2022-10-01T15:58:06.683Z,4.90
2022-10-01T16:01:01.034Z,2.93
2022-10-01T16:03:52.419Z,5.33
2022-10-01T16:06:43.603Z,6.87
2022-10-01T16:09:32.440Z,3.73
2022-10-01T16:12:22.405Z,4.70
2022-10-01T16:15:25.292Z,4.47
2022-10-01T16:18:22.708Z,6.47
2022-10-01T16:21:12.915Z,6.10
2022-10-01T16:24:03.202Z,5.00
2022-10-01T16:26:55.029Z,3.87
2022-10-01T16:29:44.355Z,6.20
2022-10-01T16:32:33.154Z,6.80
2022-10-01T16:35:23.026Z,3.10
2022-10-01T16:38:12.498Z,4.50
2022-10-01T16:41:03.946Z,4.57
2022-10-01T16:43:53.348Z,4.87
2022-10-01T16:46:42.330Z,6.30
2022-10-01T16:49:31.126Z,7.00
2022-10-01T16:52:20.032Z,4.90
2022-10-01T16:55:15.719Z,7.33
2022-10-01T16:58:06.795Z,7.70
2022-10-01T17:00:56.065Z,5.07
2022-10-01T17:03:44.954Z,5.93
2022-10-01T17:06:34.233Z,7.33
2022-10-01T17:09:23.167Z,6.73
2022-10-01T17:12:12.489Z,9.60
2022-10-01T17:15:02.676Z,14.20
2022-10-01T17:17:51.562Z,7.50
2022-10-01T17:20:40.375Z,5.50
2022-10-01T17:23:29.316Z,7.97
2022-10-01T17:26:18.119Z,10.20
2022-10-01T17:29:08.452Z,13.37
2022-10-01T17:31:58.611Z,8.87
2022-10-01T17:34:47.444Z,9.50
2022-10-01T17:37:36.495Z,6.07
2022-10-01T17:40:25.376Z,7.87
2022-10-01T17:43:14.416Z,8.37
2022-10-01T17:46:03.436Z,8.20
2022-10-01T17:48:53.579Z,6.70
2022-10-01T17:51:42.479Z,11.43
2022-10-01T17:54:31.343Z,7.63
2022-10-01T17:57:20.210Z,10.13
2022-10-01T18:00:09.819Z,11.53
2022-10-01T18:03:01.113Z,13.50
2022-10-01T18:05:51.911Z,13.40
2022-10-01T18:08:54.724Z,10.17
2022-10-01T18:11:44.782Z,11.73
2022-10-01T18:14:33.744Z,11.43
2022-10-01T18:17:22.568Z,7.53
2022-10-01T18:20:11.473Z,7.93
2022-10-01T18:23:01.631Z,8.03
2022-10-01T18:25:50.467Z,11.17
2022-10-01T18:28:39.355Z,8.87
2022-10-01T18:31:36.605Z,9.50
2022-10-01T18:34:28.051Z,7.67
2022-10-01T18:37:23.913Z,7.43
2022-10-01T18:40:15.088Z,9.40
2022-10-01T18:43:06.033Z,10.43
2022-10-01T18:46:02.061Z,10.63
2022-10-01T18:48:58.371Z,16.40
2022-10-01T18:52:01.402Z,10.37
2022-10-01T18:54:56.179Z,9.00
2022-10-01T18:57:53.679Z,7.60
2022-10-01T19:00:46.605Z,13.13
2022-10-01T19:03:46.808Z,9.83
2022-10-01T19:06:42.487Z,12.20
2022-10-01T19:09:37.531Z,7.90
2022-10-01T19:12:34.662Z,9.80
2022-10-01T19:15:28.390Z,9.17
2022-10-01T19:18:24.275Z,11.63
2022-10-01T19:21:18.892Z,10.37
2022-10-01T19:24:16.685Z,6.70
2022-10-01T19:27:13.454Z,15.40
2022-10-01T19:30:04.172Z,10.13
2022-10-01T19:32:58.094Z,6.57
2022-10-01T19:35:50.155Z,14.63
2022-10-01T19:38:40.163Z,7.50
2022-10-01T19:41:32.888Z,7.77
2022-10-01T19:44:24.931Z,10.27
2022-10-01T19:47:18.832Z,12.17
2022-10-01T19:50:18.266Z,7.70
2022-10-01T19:53:13.810Z,12.77
2022-10-01T19:56:03.576Z,10.80
2022-10-01T19:58:52.390Z,9.77
2022-10-01T20:01:43.775Z,11.00
2022-10-01T20:04:38.000Z,11.90
2022-10-01T20:07:30.292Z,12.30
2022-10-01T20:10:21.494Z,11.67
2022-10-01T20:13:24.063Z,15.20
2022-10-01T20:16:15.912Z,12.90
2022-10-01T20:19:08.728Z,7.60
2022-10-01T20:22:02.094Z,14.17
2022-10-01T20:24:55.966Z,11.10
2022-10-01T20:27:49.570Z,11.50
2022-10-01T20:30:44.734Z,8.23
2022-10-01T20:33:43.034Z,12.40
2022-10-01T20:36:36.120Z,13.10
2022-10-01T20:39:27.875Z,10.33
2022-10-01T20:42:23.463Z,10.27
2022-10-01T20:45:17.311Z,15.73
2022-10-01T20:48:09.080Z,9.73
2022-10-01T20:51:06.558Z,10.60
2022-10-01T20:53:56.592Z,9.50
2022-10-01T20:56:47.712Z,10.63
2022-10-01T20:59:40.588Z,11.03
2022-10-01T21:02:34.420Z,14.90
2022-10-01T21:05:24.428Z,11.33
2022-10-01T21:08:19.704Z,15.10
2022-10-01T21:11:11.410Z,15.37
2022-10-01T21:14:03.226Z,11.80
2022-10-01T21:17:01.549Z,11.63
2022-10-01T21:20:05.813Z,14.63
2022-10-01T21:23:00.930Z,14.80
2022-10-01T21:25:56.919Z,14.07
2022-10-01T21:28:57.097Z,15.33
2022-10-01T21:31:51.297Z,13.40
2022-10-01T21:34:48.828Z,15.53
2022-10-01T21:37:41.344Z,17.57
2022-10-01T21:40:37.677Z,17.10
2022-10-01T21:43:35.324Z,12.13
2022-10-01T21:46:27.260Z,14.33
2022-10-01T21:49:19.623Z,12.30
2022-10-01T21:52:14.500Z,10.63
2022-10-01T21:55:14.482Z,16.40
2022-10-01T21:58:13.172Z,14.10
2022-10-01T22:01:09.555Z,17.10
2022-10-01T22:04:00.188Z,8.43
2022-10-01T22:06:53.171Z,14.23
2022-10-01T22:09:46.022Z,11.00
2022-10-01T22:12:36.802Z,12.17
2022-10-01T22:15:29.165Z,10.63
2022-10-01T22:18:20.050Z,14.47
2022-10-01T22:21:12.267Z,8.37
2022-10-01T22:24:07.699Z,12.07
2022-10-01T22:27:01.023Z,11.33
2022-10-01T22:29:52.802Z,15.93
2022-10-01T22:32:43.640Z,11.43
2022-10-01T22:35:34.304Z,12.47
2022-10-01T22:38:25.043Z,13.40
2022-10-01T22:41:18.003Z,12.30
2022-10-01T22:44:14.501Z,17.43
2022-10-01T22:47:22.530Z,13.40
2022-10-01T22:50:18.506Z,13.30
2022-10-01T22:53:13.974Z,14.77
2022-10-01T22:56:02.887Z,13.77
2022-10-01T22:59:02.215Z,14.03
2022-10-01T23:01:57.550Z,13.03
2022-10-01T23:04:52.589Z,15.43
2022-10-01T23:07:47.416Z,11.83
2022-10-01T23:10:39.535Z,17.60
2022-10-01T23:13:32.986Z,12.57
2022-10-01T23:16:25.638Z,13.60
2022-10-01T23:19:23.473Z,11.97
2022-10-01T23:22:17.207Z,16.53
2022-10-01T23:25:15.477Z,10.07
2022-10-01T23:28:09.006Z,13.17
2022-10-01T23:31:01.775Z,12.27
2022-10-01T23:33:55.262Z,16.27
2022-10-01T23:36:48.715Z,18.27
2022-10-01T23:39:47.115Z,10.40
2022-10-01T23:42:37.211Z,13.40
2022-10-01T23:45:30.141Z,9.00
2022-10-01T23:48:19.979Z,5.63
2022-10-01T23:51:11.317Z,13.30
2022-10-01T23:54:04.730Z,8.73
2022-10-01T23:56:54.608Z,10.47
2022-10-01T23:59:45.172Z,10.17
